Site:       
  Group:  
  From:      To:        
   
Sensor Name: Furnace      Latitude:-9.57320000 , Longitude:53.92290000
Please click on the Table Headers to view a Graph of the Observations.
TimeMax. Temp. (°C)Min. Temp. (°C)Mean Temp. (°C)Tot. Rain (mm)Mean Wind (kn)Max Gust (kn)Solar Rad. (J\cm2)Humidity (%)Atmos. Press. (mb)Temp. 5cm (°C)Temp. 10cm (°C)Temp. 20cm (°C)Temp. 30cm (°C)Temp. 50cm (°C)Temp. 100cm (°C)Grass Min. (°C)
28/10/2020 23:00:008.70 7.90 8.30 0.20 9.10 17.80 0.00 86.90 997.40 7.60 7.80 8.60 9.30 10.10 11.50 -999.00
28/10/2020 22:00:008.00 7.60 7.80 0.10 9.80 20.70 0.00 84.60 997.00 7.60 7.90 8.70 9.30 10.10 11.50 -999.00
28/10/2020 21:00:008.20 7.70 7.90 0.00 11.30 24.20 0.00 79.50 996.10 7.80 8.10 8.80 9.40 10.10 11.50 -999.00
28/10/2020 20:00:008.30 7.80 8.00 0.00 12.00 26.00 0.00 79.40 995.30 8.00 8.30 8.90 9.40 10.10 11.50 -999.00
28/10/2020 19:00:008.40 7.80 8.10 0.00 12.90 23.30 0.00 81.80 994.40 8.30 8.50 9.00 9.40 10.10 11.50 -999.00
28/10/2020 18:00:008.20 7.40 7.80 0.10 13.50 26.90 0.00 86.10 993.00 8.60 8.70 9.00 9.40 10.10 11.50 -999.00
28/10/2020 17:00:009.00 7.40 8.20 0.30 14.80 37.20 6.40 86.20 992.00 8.90 8.90 8.90 9.30 10.10 11.50 -999.00
28/10/2020 16:00:009.70 8.60 9.10 0.00 16.40 30.30 19.90 84.00 990.80 9.10 9.00 8.90 9.30 10.20 11.50 -999.00
28/10/2020 15:00:0010.10 8.30 9.20 0.00 13.10 29.20 52.60 89.30 990.00 8.90 8.80 8.80 9.30 10.20 11.50 -999.00
28/10/2020 14:00:009.30 7.60 8.40 0.90 13.10 32.50 49.50 86.70 989.90 8.80 8.70 8.70 9.30 10.20 11.50 -999.00
28/10/2020 13:00:009.80 8.30 9.00 0.00 14.30 31.20 55.20 81.50 989.20 8.70 8.50 8.60 9.20 10.20 11.50 -999.00
28/10/2020 12:00:0010.50 8.30 9.40 0.10 14.10 28.30 87.90 81.40 988.60 8.20 8.10 8.50 9.30 10.20 11.60 -999.00
28/10/2020 11:00:009.20 6.80 8.00 0.30 10.00 26.60 56.20 91.10 988.10 7.70 7.80 8.50 9.30 10.20 11.60 -999.00
28/10/2020 10:00:007.50 6.50 7.00 0.80 9.20 23.70 21.60 92.70 987.30 7.50 7.70 8.50 9.30 10.30 11.60 -999.00
28/10/2020 09:00:008.40 7.00 7.70 0.50 10.50 31.60 12.40 88.00 986.60 7.50 7.70 8.60 9.40 10.30 11.60 -999.00
28/10/2020 08:00:007.70 6.40 7.00 0.00 9.60 25.70 0.60 91.50 985.90 7.50 7.80 8.70 9.40 10.30 11.60 -999.00
28/10/2020 07:00:007.30 6.60 7.00 0.40 11.20 33.20 0.00 92.00 985.50 7.60 7.90 8.70 9.50 10.30 11.60 -999.00
28/10/2020 06:00:007.00 6.60 6.80 0.70 10.50 29.60 0.00 94.50 985.30 7.70 8.00 8.80 9.50 10.30 11.60 -999.00
28/10/2020 05:00:007.00 6.50 6.70 2.00 11.50 32.80 0.00 95.20 985.10 7.80 8.10 8.90 9.60 10.30 11.60 -999.00
28/10/2020 04:00:008.50 6.70 7.60 3.50 13.40 27.10 0.00 89.70 984.50 7.90 8.20 8.90 9.60 10.40 11.60 -999.00
28/10/2020 03:00:008.60 7.30 8.00 0.50 13.90 34.30 0.00 88.70 984.50 8.00 8.30 9.00 9.70 10.40 11.60 -999.00
28/10/2020 02:00:008.70 8.10 8.40 0.40 13.30 31.60 0.00 88.70 984.30 8.00 8.30 9.10 9.70 10.40 11.60 -999.00
28/10/2020 01:00:008.60 8.10 8.40 0.00 13.70 27.80 0.00 89.00 984.10 8.00 8.30 9.20 9.80 10.40 11.60 -999.00
28/10/2020 00:00:008.40 6.70 7.60 0.30 9.40 26.10 0.00 92.90 983.80 8.10 8.40 9.30 9.80 10.40 11.60 5.10
27/10/2020 23:00:008.40 7.20 7.80 0.90 13.30 32.30 0.00 90.70 983.70 8.30 8.70 9.40 9.90 10.40 11.60 6.00
27/10/2020 22:00:008.70 7.00 7.90 1.70 11.10 25.30 0.00 89.10 983.60 8.60 8.90 9.50 9.90 10.40 11.60 5.20